sensor_id;sensor_type;location;lat;lon;timestamp;pressure;altitude;pressure_sealevel;temperature;humidity
19457;BME280;9867;48.094;11.478;2023-08-21T00:00:53;95729.75;;;26.22;100.00
19457;BME280;9867;48.094;11.478;2023-08-21T00:03:22;95723.06;;;26.34;100.00
19457;BME280;9867;48.094;11.478;2023-08-21T00:05:50;95715.38;;;26.38;100.00
19457;BME280;9867;48.094;11.478;2023-08-21T00:08:18;95716.63;;;26.45;100.00
19457;BME280;9867;48.094;11.478;2023-08-21T00:10:46;95713.63;;;26.52;100.00
19457;BME280;9867;48.094;11.478;2023-08-21T00:13:14;95713.69;;;26.47;100.00
19457;BME280;9867;48.094;11.478;2023-08-21T00:15:42;95711.00;;;26.52;100.00
19457;BME280;9867;48.094;11.478;2023-08-21T00:18:11;95708.13;;;26.48;100.00
19457;BME280;9867;48.094;11.478;2023-08-21T00:20:39;95709.19;;;26.47;100.00
19457;BME280;9867;48.094;11.478;2023-08-21T00:23:08;95708.25;;;26.62;100.00
19457;BME280;9867;48.094;11.478;2023-08-21T00:25:36;95704.31;;;26.60;100.00
19457;BME280;9867;48.094;11.478;2023-08-21T00:28:05;95710.09;;;26.62;100.00
19457;BME280;9867;48.094;11.478;2023-08-21T00:30:33;95706.72;;;26.56;100.00
19457;BME280;9867;48.094;11.478;2023-08-21T00:33:01;95708.28;;;26.57;100.00
19457;BME280;9867;48.094;11.478;2023-08-21T00:35:30;95706.22;;;26.54;100.00
19457;BME280;9867;48.094;11.478;2023-08-21T00:37:58;95698.94;;;26.46;100.00
19457;BME280;9867;48.094;11.478;2023-08-21T00:40:27;95696.63;;;26.44;100.00
19457;BME280;9867;48.094;11.478;2023-08-21T00:42:55;95695.13;;;26.38;100.00
19457;BME280;9867;48.094;11.478;2023-08-21T00:45:24;95696.53;;;26.26;100.00
19457;BME280;9867;48.094;11.478;2023-08-21T00:47:52;95698.81;;;26.13;100.00
19457;BME280;9867;48.094;11.478;2023-08-21T00:50:20;95695.25;;;25.99;100.00
19457;BME280;9867;48.094;11.478;2023-08-21T00:52:50;95697.09;;;25.75;100.00
19457;BME280;9867;48.094;11.478;2023-08-21T00:55:18;95693.41;;;25.47;100.00
19457;BME280;9867;48.094;11.478;2023-08-21T00:57:46;95685.19;;;25.25;100.00
19457;BME280;9867;48.094;11.478;2023-08-21T01:00:15;95696.06;;;25.08;100.00
19457;BME280;9867;48.094;11.478;2023-08-21T01:02:43;95697.97;;;25.02;100.00
19457;BME280;9867;48.094;11.478;2023-08-21T01:05:11;95692.75;;;24.97;100.00
19457;BME280;9867;48.094;11.478;2023-08-21T01:07:46;95701.94;;;24.95;100.00
19457;BME280;9867;48.094;11.478;2023-08-21T01:10:25;95698.28;;;24.91;100.00
19457;BME280;9867;48.094;11.478;2023-08-21T01:13:02;95699.56;;;24.98;100.00
19457;BME280;9867;48.094;11.478;2023-08-21T01:15:33;95706.41;;;24.99;100.00
19457;BME280;9867;48.094;11.478;2023-08-21T01:18:02;95702.16;;;25.03;100.00
19457;BME280;9867;48.094;11.478;2023-08-21T01:20:30;95706.31;;;25.09;100.00
19457;BME280;9867;48.094;11.478;2023-08-21T01:23:04;95707.13;;;25.05;100.00
19457;BME280;9867;48.094;11.478;2023-08-21T01:25:33;95706.06;;;25.06;100.00
19457;BME280;9867;48.094;11.478;2023-08-21T01:28:02;95697.50;;;24.95;100.00
19457;BME280;9867;48.094;11.478;2023-08-21T01:30:31;95702.75;;;24.95;100.00
19457;BME280;9867;48.094;11.478;2023-08-21T01:33:05;95700.63;;;24.92;100.00
19457;BME280;9867;48.094;11.478;2023-08-21T01:35:35;95696.13;;;25.03;100.00
19457;BME280;9867;48.094;11.478;2023-08-21T01:38:05;95696.41;;;25.01;100.00
19457;BME280;9867;48.094;11.478;2023-08-21T01:40:35;95697.66;;;25.09;100.00
19457;BME280;9867;48.094;11.478;2023-08-21T01:43:03;95698.97;;;25.06;100.00
19457;BME280;9867;48.094;11.478;2023-08-21T01:45:31;95696.34;;;25.06;100.00
19457;BME280;9867;48.094;11.478;2023-08-21T01:47:59;95700.13;;;24.95;100.00
19457;BME280;9867;48.094;11.478;2023-08-21T01:50:29;95709.13;;;24.79;100.00
19457;BME280;9867;48.094;11.478;2023-08-21T01:52:57;95700.50;;;24.68;100.00
19457;BME280;9867;48.094;11.478;2023-08-21T01:55:26;95697.13;;;24.63;100.00
19457;BME280;9867;48.094;11.478;2023-08-21T01:57:56;95692.94;;;24.57;100.00
19457;BME280;9867;48.094;11.478;2023-08-21T02:00:24;95696.81;;;24.74;100.00
19457;BME280;9867;48.094;11.478;2023-08-21T02:02:52;95691.03;;;24.77;100.00
19457;BME280;9867;48.094;11.478;2023-08-21T02:05:20;95683.09;;;24.82;100.00
19457;BME280;9867;48.094;11.478;2023-08-21T02:07:48;95694.06;;;24.95;100.00
19457;BME280;9867;48.094;11.478;2023-08-21T02:10:16;95694.44;;;24.78;100.00
19457;BME280;9867;48.094;11.478;2023-08-21T02:12:44;95690.06;;;24.58;100.00
19457;BME280;9867;48.094;11.478;2023-08-21T02:15:13;95698.75;;;24.54;100.00
19457;BME280;9867;48.094;11.478;2023-08-21T02:17:42;95695.66;;;24.41;100.00
19457;BME280;9867;48.094;11.478;2023-08-21T02:20:12;95695.72;;;24.26;100.00
19457;BME280;9867;48.094;11.478;2023-08-21T02:22:40;95691.81;;;24.13;100.00
19457;BME280;9867;48.094;11.478;2023-08-21T02:25:08;95698.63;;;24.09;100.00
19457;BME280;9867;48.094;11.478;2023-08-21T02:27:37;95699.47;;;24.00;100.00
19457;BME280;9867;48.094;11.478;2023-08-21T02:30:06;95691.06;;;24.03;100.00
19457;BME280;9867;48.094;11.478;2023-08-21T02:32:36;95704.13;;;24.13;100.00
19457;BME280;9867;48.094;11.478;2023-08-21T02:35:06;95700.78;;;23.97;100.00
19457;BME280;9867;48.094;11.478;2023-08-21T02:37:34;95703.41;;;23.97;100.00
19457;BME280;9867;48.094;11.478;2023-08-21T02:40:06;95703.13;;;23.99;100.00
19457;BME280;9867;48.094;11.478;2023-08-21T02:42:35;95697.91;;;23.94;100.00
19457;BME280;9867;48.094;11.478;2023-08-21T02:45:04;95702.41;;;23.83;100.00
19457;BME280;9867;48.094;11.478;2023-08-21T02:47:37;95699.22;;;23.86;100.00
19457;BME280;9867;48.094;11.478;2023-08-21T02:50:07;95707.59;;;23.98;100.00
19457;BME280;9867;48.094;11.478;2023-08-21T02:52:37;95713.63;;;24.04;100.00
19457;BME280;9867;48.094;11.478;2023-08-21T02:55:07;95705.75;;;23.94;100.00
19457;BME280;9867;48.094;11.478;2023-08-21T02:57:37;95707.59;;;23.93;100.00
19457;BME280;9867;48.094;11.478;2023-08-21T03:00:06;95703.72;;;23.80;100.00
19457;BME280;9867;48.094;11.478;2023-08-21T03:02:36;95704.75;;;23.79;100.00
19457;BME280;9867;48.094;11.478;2023-08-21T03:05:06;95703.44;;;23.82;100.00
19457;BME280;9867;48.094;11.478;2023-08-21T03:07:38;95697.94;;;23.78;100.00
19457;BME280;9867;48.094;11.478;2023-08-21T03:10:07;95700.84;;;23.82;100.00
19457;BME280;9867;48.094;11.478;2023-08-21T03:12:36;95688.00;;;23.65;100.00
19457;BME280;9867;48.094;11.478;2023-08-21T03:15:05;95710.56;;;23.61;100.00
19457;BME280;9867;48.094;11.478;2023-08-21T03:17:33;95700.06;;;23.66;100.00
19457;BME280;9867;48.094;11.478;2023-08-21T03:20:03;95713.69;;;23.68;100.00
19457;BME280;9867;48.094;11.478;2023-08-21T03:22:33;95710.53;;;23.66;100.00
19457;BME280;9867;48.094;11.478;2023-08-21T03:25:01;95705.03;;;23.42;100.00
19457;BME280;9867;48.094;11.478;2023-08-21T03:27:30;95705.56;;;23.44;100.00
19457;BME280;9867;48.094;11.478;2023-08-21T03:29:58;95712.38;;;23.30;100.00
19457;BME280;9867;48.094;11.478;2023-08-21T03:32:32;95701.38;;;23.23;100.00
19457;BME280;9867;48.094;11.478;2023-08-21T03:35:00;95707.91;;;23.26;100.00
19457;BME280;9867;48.094;11.478;2023-08-21T03:37:30;95718.13;;;23.27;100.00
19457;BME280;9867;48.094;11.478;2023-08-21T03:39:58;95718.41;;;23.26;100.00
19457;BME280;9867;48.094;11.478;2023-08-21T03:42:27;95729.41;;;23.28;100.00
19457;BME280;9867;48.094;11.478;2023-08-21T03:44:55;95729.94;;;23.30;100.00
19457;BME280;9867;48.094;11.478;2023-08-21T03:47:23;95725.22;;;23.27;100.00
19457;BME280;9867;48.094;11.478;2023-08-21T03:49:57;95736.72;;;23.26;100.00
19457;BME280;9867;48.094;11.478;2023-08-21T03:52:25;95729.41;;;23.28;100.00
19457;BME280;9867;48.094;11.478;2023-08-21T03:54:55;95737.56;;;23.57;100.00
19457;BME280;9867;48.094;11.478;2023-08-21T03:57:22;95732.84;;;23.59;100.00
19457;BME280;9867;48.094;11.478;2023-08-21T03:59:50;95738.59;;;23.61;100.00
19457;BME280;9867;48.094;11.478;2023-08-21T04:02:18;95732.81;;;23.64;100.00
19457;BME280;9867;48.094;11.478;2023-08-21T04:04:48;95742.22;;;23.50;100.00
19457;BME280;9867;48.094;11.478;2023-08-21T04:07:17;95736.22;;;23.29;100.00
19457;BME280;9867;48.094;11.478;2023-08-21T04:09:45;95744.84;;;23.44;100.00
19457;BME280;9867;48.094;11.478;2023-08-21T04:12:15;95743.28;;;23.43;100.00
19457;BME280;9867;48.094;11.478;2023-08-21T04:14:43;95736.97;;;23.44;100.00
19457;BME280;9867;48.094;11.478;2023-08-21T04:17:11;95740.13;;;23.52;100.00
19457;BME280;9867;48.094;11.478;2023-08-21T04:19:39;95729.94;;;23.55;100.00
19457;BME280;9867;48.094;11.478;2023-08-21T04:22:07;95736.75;;;23.76;100.00
19457;BME280;9867;48.094;11.478;2023-08-21T04:24:36;95731.75;;;23.75;100.00
19457;BME280;9867;48.094;11.478;2023-08-21T04:27:04;95741.72;;;23.78;100.00
19457;BME280;9867;48.094;11.478;2023-08-21T04:29:35;95743.28;;;23.74;100.00
19457;BME280;9867;48.094;11.478;2023-08-21T04:32:03;95736.22;;;23.69;100.00
19457;BME280;9867;48.094;11.478;2023-08-21T04:34:32;95735.16;;;23.75;100.00
19457;BME280;9867;48.094;11.478;2023-08-21T04:37:00;95737.50;;;23.87;100.00
19457;BME280;9867;48.094;11.478;2023-08-21T04:39:28;95741.41;;;24.00;100.00
19457;BME280;9867;48.094;11.478;2023-08-21T04:41:56;95741.94;;;24.07;100.00
19457;BME280;9867;48.094;11.478;2023-08-21T04:44:24;95745.59;;;24.06;100.00
19457;BME280;9867;48.094;11.478;2023-08-21T04:46:53;95752.09;;;24.19;100.00
19457;BME280;9867;48.094;11.478;2023-08-21T04:49:22;95742.94;;;24.11;100.00
19457;BME280;9867;48.094;11.478;2023-08-21T04:51:50;95749.47;;;24.19;100.00
19457;BME280;9867;48.094;11.478;2023-08-21T04:54:19;95739.47;;;24.36;100.00
19457;BME280;9867;48.094;11.478;2023-08-21T04:56:47;95752.03;;;24.49;100.00
19457;BME280;9867;48.094;11.478;2023-08-21T04:59:15;95753.03;;;24.58;100.00
19457;BME280;9867;48.094;11.478;2023-08-21T05:01:43;95751.91;;;24.79;100.00
19457;BME280;9867;48.094;11.478;2023-08-21T05:04:13;95756.81;;;25.01;100.00
19457;BME280;9867;48.094;11.478;2023-08-21T05:06:41;95755.38;;;25.14;100.00
19457;BME280;9867;48.094;11.478;2023-08-21T05:09:09;95755.66;;;25.12;100.00
19457;BME280;9867;48.094;11.478;2023-08-21T05:11:37;95761.00;;;25.36;100.00
19457;BME280;9867;48.094;11.478;2023-08-21T05:14:05;95757.81;;;25.44;100.00
19457;BME280;9867;48.094;11.478;2023-08-21T05:16:34;95765.31;;;25.27;100.00
19457;BME280;9867;48.094;11.478;2023-08-21T05:19:02;95768.00;;;25.51;100.00
19457;BME280;9867;48.094;11.478;2023-08-21T05:21:32;95764.47;;;25.71;100.00
19457;BME280;9867;48.094;11.478;2023-08-21T05:24:00;95764.16;;;26.01;100.00
19457;BME280;9867;48.094;11.478;2023-08-21T05:26:30;95761.81;;;26.00;100.00
19457;BME280;9867;48.094;11.478;2023-08-21T05:28:58;95762.16;;;25.93;100.00
19457;BME280;9867;48.094;11.478;2023-08-21T05:31:26;95766.00;;;26.01;100.00
19457;BME280;9867;48.094;11.478;2023-08-21T05:33:55;95755.72;;;26.04;100.00
19457;BME280;9867;48.094;11.478;2023-08-21T05:36:25;95765.22;;;26.24;100.00
19457;BME280;9867;48.094;11.478;2023-08-21T05:38:57;95764.00;;;26.45;100.00
19457;BME280;9867;48.094;11.478;2023-08-21T05:41:27;95769.50;;;26.20;100.00
19457;BME280;9867;48.094;11.478;2023-08-21T05:43:56;95767.25;;;26.37;100.00
19457;BME280;9867;48.094;11.478;2023-08-21T05:46:24;95770.59;;;26.43;100.00
19457;BME280;9867;48.094;11.478;2023-08-21T05:48:52;95773.81;;;26.59;100.00
19457;BME280;9867;48.094;11.478;2023-08-21T05:51:20;95774.28;;;26.66;100.00
19457;BME280;9867;48.094;11.478;2023-08-21T05:53:49;95772.56;;;26.94;100.00
19457;BME280;9867;48.094;11.478;2023-08-21T05:56:18;95777.84;;;26.94;100.00
19457;BME280;9867;48.094;11.478;2023-08-21T05:58:46;95773.97;;;27.10;100.00
19457;BME280;9867;48.094;11.478;2023-08-21T06:01:14;95770.56;;;27.09;100.00
19457;BME280;9867;48.094;11.478;2023-08-21T06:03:43;95773.59;;;26.98;100.00
19457;BME280;9867;48.094;11.478;2023-08-21T06:06:19;95773.09;;;26.96;100.00
19457;BME280;9867;48.094;11.478;2023-08-21T06:08:47;95784.66;;;27.18;100.00
19457;BME280;9867;48.094;11.478;2023-08-21T06:11:15;95775.75;;;27.33;100.00
19457;BME280;9867;48.094;11.478;2023-08-21T06:13:45;95776.81;;;27.32;100.00
19457;BME280;9867;48.094;11.478;2023-08-21T06:16:13;95784.09;;;27.22;100.00
19457;BME280;9867;48.094;11.478;2023-08-21T06:18:41;95784.00;;;27.27;100.00
19457;BME280;9867;48.094;11.478;2023-08-21T06:21:09;95780.56;;;27.45;100.00
19457;BME280;9867;48.094;11.478;2023-08-21T06:23:37;95780.38;;;27.60;100.00
19457;BME280;9867;48.094;11.478;2023-08-21T06:26:05;95778.72;;;27.64;100.00
19457;BME280;9867;48.094;11.478;2023-08-21T06:28:33;95776.34;;;27.95;100.00
19457;BME280;9867;48.094;11.478;2023-08-21T06:31:03;95783.06;;;27.88;100.00
19457;BME280;9867;48.094;11.478;2023-08-21T06:33:34;95788.53;;;27.91;100.00
19457;BME280;9867;48.094;11.478;2023-08-21T06:36:02;95781.50;;;27.54;100.00
19457;BME280;9867;48.094;11.478;2023-08-21T06:38:30;95780.13;;;27.57;100.00
19457;BME280;9867;48.094;11.478;2023-08-21T06:41:02;95787.66;;;27.82;100.00
19457;BME280;9867;48.094;11.478;2023-08-21T06:43:34;95792.09;;;28.14;100.00
19457;BME280;9867;48.094;11.478;2023-08-21T06:46:04;95790.63;;;28.54;100.00
19457;BME280;9867;48.094;11.478;2023-08-21T06:48:32;95801.53;;;28.20;100.00
19457;BME280;9867;48.094;11.478;2023-08-21T06:51:00;95783.75;;;28.67;100.00
19457;BME280;9867;48.094;11.478;2023-08-21T06:53:29;95797.44;;;28.69;100.00
19457;BME280;9867;48.094;11.478;2023-08-21T06:55:57;95786.69;;;28.51;100.00
19457;BME280;9867;48.094;11.478;2023-08-21T06:58:25;95797.84;;;28.76;100.00
19457;BME280;9867;48.094;11.478;2023-08-21T07:00:54;95796.34;;;28.70;100.00
19457;BME280;9867;48.094;11.478;2023-08-21T07:03:26;95803.41;;;29.02;99.97
19457;BME280;9867;48.094;11.478;2023-08-21T07:05:54;95793.50;;;29.30;95.19
19457;BME280;9867;48.094;11.478;2023-08-21T07:08:23;95793.88;;;29.37;96.98
19457;BME280;9867;48.094;11.478;2023-08-21T07:10:54;95802.31;;;29.39;95.44
19457;BME280;9867;48.094;11.478;2023-08-21T07:13:22;95808.91;;;29.41;96.41
19457;BME280;9867;48.094;11.478;2023-08-21T07:15:52;95807.88;;;29.51;91.83
19457;BME280;9867;48.094;11.478;2023-08-21T07:18:21;95807.13;;;29.81;91.27
19457;BME280;9867;48.094;11.478;2023-08-21T07:20:53;95806.34;;;29.81;89.81
19457;BME280;9867;48.094;11.478;2023-08-21T07:23:21;95814.84;;;29.69;88.40
19457;BME280;9867;48.094;11.478;2023-08-21T07:25:49;95813.19;;;29.51;89.75
19457;BME280;9867;48.094;11.478;2023-08-21T07:28:17;95814.84;;;29.47;89.92
19457;BME280;9867;48.094;11.478;2023-08-21T07:30:45;95814.56;;;29.71;87.63
19457;BME280;9867;48.094;11.478;2023-08-21T07:33:14;95810.44;;;29.87;85.98
19457;BME280;9867;48.094;11.478;2023-08-21T07:35:43;95807.09;;;29.73;86.33
19457;BME280;9867;48.094;11.478;2023-08-21T07:38:12;95813.50;;;29.80;85.34
19457;BME280;9867;48.094;11.478;2023-08-21T07:40:40;95804.09;;;29.43;87.98
19457;BME280;9867;48.094;11.478;2023-08-21T07:43:08;95809.38;;;29.66;87.37
19457;BME280;9867;48.094;11.478;2023-08-21T07:45:37;95810.66;;;29.68;86.84
19457;BME280;9867;48.094;11.478;2023-08-21T07:48:05;95812.50;;;29.68;87.55
19457;BME280;9867;48.094;11.478;2023-08-21T07:50:41;95801.97;;;29.76;85.72
19457;BME280;9867;48.094;11.478;2023-08-21T07:53:09;95803.47;;;30.13;85.01
19457;BME280;9867;48.094;11.478;2023-08-21T07:55:38;95806.41;;;30.12;85.60
19457;BME280;9867;48.094;11.478;2023-08-21T07:58:07;95803.28;;;30.10;83.80
19457;BME280;9867;48.094;11.478;2023-08-21T08:00:35;95799.38;;;30.38;81.69
19457;BME280;9867;48.094;11.478;2023-08-21T08:03:03;95800.66;;;30.49;82.17
19457;BME280;9867;48.094;11.478;2023-08-21T08:05:33;95808.66;;;30.27;82.90
19457;BME280;9867;48.094;11.478;2023-08-21T08:08:01;95804.13;;;30.59;82.98
19457;BME280;9867;48.094;11.478;2023-08-21T08:10:29;95804.22;;;30.84;81.28
19457;BME280;9867;48.094;11.478;2023-08-21T08:13:01;95810.47;;;30.89;80.07
19457;BME280;9867;48.094;11.478;2023-08-21T08:15:29;95807.03;;;30.97;78.84
19457;BME280;9867;48.094;11.478;2023-08-21T08:17:57;95810.63;;;30.92;76.67
19457;BME280;9867;48.094;11.478;2023-08-21T08:20:25;95813.69;;;30.77;77.04
19457;BME280;9867;48.094;11.478;2023-08-21T08:22:53;95811.44;;;31.10;74.75
19457;BME280;9867;48.094;11.478;2023-08-21T08:25:23;95810.53;;;31.40;73.43
19457;BME280;9867;48.094;11.478;2023-08-21T08:27:51;95811.31;;;31.58;73.74
19457;BME280;9867;48.094;11.478;2023-08-21T08:30:21;95814.59;;;31.29;72.49
19457;BME280;9867;48.094;11.478;2023-08-21T08:32:50;95805.69;;;31.34;72.18
19457;BME280;9867;48.094;11.478;2023-08-21T08:35:18;95815.38;;;31.73;70.50
19457;BME280;9867;48.094;11.478;2023-08-21T08:37:46;95812.41;;;31.83;70.99
19457;BME280;9867;48.094;11.478;2023-08-21T08:40:14;95810.34;;;31.97;66.20
19457;BME280;9867;48.094;11.478;2023-08-21T08:42:42;95810.59;;;32.13;62.70
19457;BME280;9867;48.094;11.478;2023-08-21T08:45:13;95809.66;;;32.26;61.29
19457;BME280;9867;48.094;11.478;2023-08-21T08:47:43;95808.59;;;32.10;62.73
19457;BME280;9867;48.094;11.478;2023-08-21T08:50:12;95806.53;;;32.33;61.07
19457;BME280;9867;48.094;11.478;2023-08-21T08:52:41;95806.53;;;32.62;57.48
19457;BME280;9867;48.094;11.478;2023-08-21T08:55:10;95802.75;;;32.63;57.23
19457;BME280;9867;48.094;11.478;2023-08-21T08:57:38;95801.59;;;32.52;57.95
19457;BME280;9867;48.094;11.478;2023-08-21T09:00:08;95808.50;;;32.82;56.46
19457;BME280;9867;48.094;11.478;2023-08-21T09:02:36;95805.75;;;32.62;55.65
19457;BME280;9867;48.094;11.478;2023-08-21T09:05:06;95806.91;;;32.52;50.47
19457;BME280;9867;48.094;11.478;2023-08-21T09:07:35;95806.03;;;32.69;48.36
19457;BME280;9867;48.094;11.478;2023-08-21T09:10:04;95804.50;;;33.18;49.16
19457;BME280;9867;48.094;11.478;2023-08-21T09:12:32;95811.59;;;33.35;46.56
19457;BME280;9867;48.094;11.478;2023-08-21T09:15:06;95812.97;;;33.41;45.65
19457;BME280;9867;48.094;11.478;2023-08-21T09:17:34;95816.63;;;33.69;46.26
19457;BME280;9867;48.094;11.478;2023-08-21T09:20:04;95812.44;;;33.47;44.85
19457;BME280;9867;48.094;11.478;2023-08-21T09:22:33;95804.31;;;33.02;44.70
19457;BME280;9867;48.094;11.478;2023-08-21T09:25:03;95810.28;;;33.41;44.30
19457;BME280;9867;48.094;11.478;2023-08-21T09:27:34;95800.94;;;33.14;44.19
19457;BME280;9867;48.094;11.478;2023-08-21T09:30:04;95814.38;;;33.38;43.70
19457;BME280;9867;48.094;11.478;2023-08-21T09:32:52;95812.66;;;33.75;43.07
19457;BME280;9867;48.094;11.478;2023-08-21T09:35:21;95813.25;;;33.81;43.19
19457;BME280;9867;48.094;11.478;2023-08-21T09:37:54;95803.88;;;33.96;44.01
19457;BME280;9867;48.094;11.478;2023-08-21T09:40:22;95804.56;;;33.72;44.86
19457;BME280;9867;48.094;11.478;2023-08-21T09:42:52;95802.16;;;33.58;46.42
19457;BME280;9867;48.094;11.478;2023-08-21T09:45:21;95804.34;;;34.10;45.72
19457;BME280;9867;48.094;11.478;2023-08-21T09:47:50;95801.53;;;34.51;44.28
19457;BME280;9867;48.094;11.478;2023-08-21T09:50:20;95791.75;;;34.43;43.05
19457;BME280;9867;48.094;11.478;2023-08-21T09:52:51;95800.63;;;34.35;43.96
19457;BME280;9867;48.094;11.478;2023-08-21T09:55:21;95793.09;;;34.62;42.61
19457;BME280;9867;48.094;11.478;2023-08-21T09:57:50;95789.53;;;34.70;40.88
19457;BME280;9867;48.094;11.478;2023-08-21T10:00:27;95789.53;;;34.70;40.39
19457;BME280;9867;48.094;11.478;2023-08-21T10:03:00;95787.84;;;34.53;40.38
19457;BME280;9867;48.094;11.478;2023-08-21T10:05:30;95785.19;;;34.65;40.63
19457;BME280;9867;48.094;11.478;2023-08-21T10:08:01;95779.75;;;34.49;41.54
19457;BME280;9867;48.094;11.478;2023-08-21T10:10:32;95786.97;;;34.61;41.29
19457;BME280;9867;48.094;11.478;2023-08-21T10:13:00;95785.97;;;34.53;42.36
19457;BME280;9867;48.094;11.478;2023-08-21T10:15:30;95781.41;;;34.54;41.93
19457;BME280;9867;48.094;11.478;2023-08-21T10:18:17;95773.72;;;35.01;40.48
19457;BME280;9867;48.094;11.478;2023-08-21T10:20:46;95783.75;;;34.92;40.31
19457;BME280;9867;48.094;11.478;2023-08-21T10:23:24;95778.09;;;34.94;39.89
19457;BME280;9867;48.094;11.478;2023-08-21T10:25:58;95783.94;;;35.11;41.96
19457;BME280;9867;48.094;11.478;2023-08-21T10:28:42;95773.53;;;34.94;42.14
19457;BME280;9867;48.094;11.478;2023-08-21T10:31:29;95775.34;;;35.18;40.89
19457;BME280;9867;48.094;11.478;2023-08-21T10:34:00;95772.22;;;35.56;42.96
19457;BME280;9867;48.094;11.478;2023-08-21T10:39:37;95778.75;;;35.43;41.06
19457;BME280;9867;48.094;11.478;2023-08-21T10:42:09;95774.38;;;35.10;39.31
19457;BME280;9867;48.094;11.478;2023-08-21T10:44:48;95773.09;;;35.20;38.96
19457;BME280;9867;48.094;11.478;2023-08-21T10:47:21;95778.56;;;35.36;39.71
19457;BME280;9867;48.094;11.478;2023-08-21T10:49:51;95772.28;;;35.44;38.47
19457;BME280;9867;48.094;11.478;2023-08-21T10:52:21;95768.00;;;35.55;38.37
19457;BME280;9867;48.094;11.478;2023-08-21T10:54:53;95779.38;;;35.00;38.53
19457;BME280;9867;48.094;11.478;2023-08-21T10:57:24;95766.81;;;35.12;39.27
19457;BME280;9867;48.094;11.478;2023-08-21T10:59:57;95778.88;;;34.82;40.50
19457;BME280;9867;48.094;11.478;2023-08-21T11:02:26;95771.97;;;34.93;40.56
19457;BME280;9867;48.094;11.478;2023-08-21T11:04:56;95776.28;;;34.98;41.18
19457;BME280;9867;48.094;11.478;2023-08-21T11:07:24;95767.88;;;34.83;40.43
19457;BME280;9867;48.094;11.478;2023-08-21T11:09:53;95766.19;;;34.79;40.14
19457;BME280;9867;48.094;11.478;2023-08-21T11:12:27;95769.22;;;35.30;41.60
19457;BME280;9867;48.094;11.478;2023-08-21T11:14:55;95777.13;;;35.54;39.07
19457;BME280;9867;48.094;11.478;2023-08-21T11:17:24;95775.78;;;36.04;39.68
19457;BME280;9867;48.094;11.478;2023-08-21T11:19:52;95781.13;;;36.04;37.98
19457;BME280;9867;48.094;11.478;2023-08-21T11:22:20;95774.22;;;36.81;37.36
19457;BME280;9867;48.094;11.478;2023-08-21T11:24:49;95780.09;;;36.71;37.21
19457;BME280;9867;48.094;11.478;2023-08-21T11:27:18;95778.22;;;36.25;38.53
19457;BME280;9867;48.094;11.478;2023-08-21T11:29:52;95774.66;;;35.61;39.07
19457;BME280;9867;48.094;11.478;2023-08-21T11:32:21;95778.69;;;35.83;38.81
19457;BME280;9867;48.094;11.478;2023-08-21T11:34:51;95765.81;;;36.32;39.98
19457;BME280;9867;48.094;11.478;2023-08-21T11:37:21;95757.13;;;36.70;37.76
19457;BME280;9867;48.094;11.478;2023-08-21T11:39:51;95771.75;;;36.73;39.10
19457;BME280;9867;48.094;11.478;2023-08-21T11:42:20;95766.09;;;37.13;38.08
19457;BME280;9867;48.094;11.478;2023-08-21T11:44:50;95769.88;;;37.12;39.36
19457;BME280;9867;48.094;11.478;2023-08-21T11:47:22;95769.22;;;36.80;37.11
19457;BME280;9867;48.094;11.478;2023-08-21T11:49:50;95769.50;;;36.59;37.29
19457;BME280;9867;48.094;11.478;2023-08-21T11:52:20;95769.31;;;36.83;38.45
19457;BME280;9867;48.094;11.478;2023-08-21T11:54:49;95766.19;;;36.66;37.47
19457;BME280;9867;48.094;11.478;2023-08-21T11:57:18;95759.53;;;37.10;36.59
19457;BME280;9867;48.094;11.478;2023-08-21T11:59:50;95757.97;;;37.25;36.73
19457;BME280;9867;48.094;11.478;2023-08-21T12:02:22;95761.38;;;37.64;37.52
19457;BME280;9867;48.094;11.478;2023-08-21T12:04:52;95764.38;;;38.24;37.99
19457;BME280;9867;48.094;11.478;2023-08-21T12:07:21;95755.00;;;37.49;35.99
19457;BME280;9867;48.094;11.478;2023-08-21T12:09:49;95753.00;;;36.73;37.64
19457;BME280;9867;48.094;11.478;2023-08-21T12:12:17;95762.31;;;36.79;38.09
19457;BME280;9867;48.094;11.478;2023-08-21T12:14:45;95749.56;;;37.07;37.43
19457;BME280;9867;48.094;11.478;2023-08-21T12:17:14;95741.44;;;37.04;36.32
19457;BME280;9867;48.094;11.478;2023-08-21T12:19:43;95751.91;;;37.28;36.23
19457;BME280;9867;48.094;11.478;2023-08-21T12:22:11;95747.34;;;36.94;36.85
19457;BME280;9867;48.094;11.478;2023-08-21T12:24:40;95748.16;;;37.52;37.00
19457;BME280;9867;48.094;11.478;2023-08-21T12:27:08;95742.56;;;38.26;37.32
19457;BME280;9867;48.094;11.478;2023-08-21T12:29:36;95741.94;;;38.36;35.34
19457;BME280;9867;48.094;11.478;2023-08-21T12:32:04;95737.94;;;38.75;34.73
19457;BME280;9867;48.094;11.478;2023-08-21T12:34:32;95738.44;;;38.32;34.94
19457;BME280;9867;48.094;11.478;2023-08-21T12:37:02;95740.34;;;38.31;35.14
19457;BME280;9867;48.094;11.478;2023-08-21T12:39:30;95738.97;;;38.41;35.27
19457;BME280;9867;48.094;11.478;2023-08-21T12:41:58;95735.66;;;38.77;34.44
19457;BME280;9867;48.094;11.478;2023-08-21T12:44:26;95729.63;;;38.84;34.94
19457;BME280;9867;48.094;11.478;2023-08-21T12:46:54;95727.81;;;38.12;33.58
19457;BME280;9867;48.094;11.478;2023-08-21T12:49:22;95725.97;;;38.43;35.53
19457;BME280;9867;48.094;11.478;2023-08-21T12:51:50;95720.06;;;38.57;35.49
19457;BME280;9867;48.094;11.478;2023-08-21T12:54:19;95730.84;;;38.11;35.42
19457;BME280;9867;48.094;11.478;2023-08-21T12:56:47;95716.28;;;38.61;34.16
19457;BME280;9867;48.094;11.478;2023-08-21T12:59:15;95718.25;;;38.64;33.50
19457;BME280;9867;48.094;11.478;2023-08-21T13:01:46;95720.72;;;38.50;34.09
19457;BME280;9867;48.094;11.478;2023-08-21T13:04:14;95722.91;;;38.18;33.98
19457;BME280;9867;48.094;11.478;2023-08-21T13:06:42;95707.41;;;38.08;33.72
19457;BME280;9867;48.094;11.478;2023-08-21T13:09:10;95718.28;;;38.41;34.09